This is the latest recevied weather packets stored in our database for station/object IW2MUC-12. If no packets are shown the sender has not sent any weather packets the latest 10 day(s).
| Time | Temp. | Humidity | Pressure | Rain* | Wind** | Luminosity | Snow |
|---|---|---|---|---|---|---|---|
| 1788008570 | 86° F | 55% | 740.3 mmHg | - | - | - | - |
| 1788007966 | 83° F | 58% | 740.3 mmHg | - | - | - | - |
| 1788007362 | 79° F | 63% | 740.3 mmHg | - | - | - | - |
| 1788006758 | 77° F | 62% | 739.6 mmHg | - | - | - | - |
| 1787992591 | 82° F | 58% | 741.1 mmHg | - | - | - | - |
| 1787991987 | 81° F | 63% | 741.1 mmHg | - | - | - | - |
| 1787991383 | 80° F | 65% | 741.1 mmHg | - | - | - | - |
| 1787990779 | 79° F | 66% | 741.1 mmHg | - | - | - | - |
| 1787990175 | 78° F | 66% | 741.1 mmHg | - | - | - | - |
| 1787989571 | 78° F | 67% | 741.1 mmHg | - | - | - | - |
| 1787988967 | 77° F | 69% | 741.1 mmHg | - | - | - | - |
| 1787988363 | 77° F | 70% | 741.1 mmHg | - | - | - | - |
| 1787987759 | 76° F | 68% | 741.1 mmHg | - | - | - | - |
| 1787987155 | 75° F | 66% | 741.1 mmHg | - | - | - | - |
| 1787986551 | 74° F | 66% | 741.1 mmHg | - | - | - | - |
| 1787985947 | 74° F | 67% | 741.1 mmHg | - | - | - | - |
| 1787955644 | 70° F | 68% | 740.3 mmHg | - | - | - | - |
| 1787955038 | 70° F | 71% | 739.6 mmHg | - | - | - | - |
| 1787953822 | 71° F | 67% | 743.3 mmHg | - | - | - | - |
| 1787953218 | 71° F | 67% | 743.3 mmHg | - | - | - | - |
| 1787952614 | 71° F | 67% | 743.3 mmHg | - | - | - | - |
| 1787952010 | 71° F | 67% | 743.3 mmHg | - | - | - | - |
| 1787950802 | 71° F | 67% | 743.3 mmHg | - | - | - | - |
| 1787950198 | 71° F | 67% | 743.3 mmHg | - | - | - | - |
| 1787949594 | 71° F | 67% | 743.3 mmHg | - | - | - | - |
* Rain since midnight (hover to see other rain measurements)
** Current wind speed in m/s (hover to see current wind gust speed)